Time;durP1;ratioP1;P1;durP2;ratioP2;P2;SDS_P1;SDS_P2;PMS_P1;PMS_P2;Temp;Humidity;BMP_temperature;BMP_pressure;BME280_temperature;BME280_humidity;BME280_pressure;Samples;Min_cycle;Max_cycle;Signal;HPM_P1;HPM_P2
2021/12/22 00:01:56;;;;;;;2.63;1.30;;;;;;;;;;4962000;28;20499;-81
2021/12/22 00:04:24;;;;;;;1.90;1.30;;;;;;;;;;4968615;28;20475;-82
2021/12/22 00:06:50;;;;;;;2.93;1.57;;;;;;;;;;4978544;28;20530;-82
2021/12/22 00:09:16;;;;;;;3.13;1.87;;;;;;;;;;4971114;28;20438;-81
2021/12/22 00:11:43;;;;;;;2.70;1.37;;;;;;;;;;4981518;28;20415;-82
2021/12/22 00:14:10;;;;;;;2.10;1.40;;;;;;;;;;4977039;28;20495;-82
2021/12/22 00:16:36;;;;;;;1.70;1.37;;;;;;;;;;4986760;28;20454;-82
2021/12/22 00:19:02;;;;;;;2.00;1.50;;;;;;;;;;4972925;28;20419;-83
2021/12/22 00:21:28;;;;;;;6.13;1.87;;;;;;;;;;4968268;28;20957;-82
2021/12/22 00:23:54;;;;;;;2.67;1.53;;;;;;;;;;4989567;28;20424;-83
2021/12/22 00:26:20;;;;;;;2.00;1.40;;;;;;;;;;4993897;28;20447;-82
2021/12/22 00:28:47;;;;;;;2.53;1.40;;;;;;;;;;4972219;28;20427;-82
2021/12/22 00:31:15;;;;;;;2.57;1.53;;;;;;;;;;4971810;28;20504;-81
2021/12/22 00:33:50;;;;;;;1.97;1.60;;;;;;;;;;4973783;28;20412;-82
2021/12/22 00:36:22;;;;;;;2.30;1.50;;;;;;;;;;4972203;28;20435;-82
2021/12/22 00:38:49;;;;;;;2.10;1.50;;;;;;;;;;4974395;28;20430;-82
2021/12/22 00:41:15;;;;;;;3.67;1.40;;;;;;;;;;4975383;28;20458;-81
2021/12/22 00:43:41;;;;;;;2.90;1.50;;;;;;;;;;4975962;28;20454;-81
2021/12/22 00:46:08;;;;;;;9.93;1.90;;;;;;;;;;4975437;28;20415;-81
2021/12/22 00:48:34;;;;;;;4.60;1.40;;;;;;;;;;4976437;28;20407;-81
2021/12/22 00:51:01;;;;;;;3.27;1.67;;;;;;;;;;4975554;28;20418;-81
2021/12/22 00:53:27;;;;;;;3.30;1.60;;;;;;;;;;4976949;28;20412;-81
2021/12/22 00:55:54;;;;;;;2.70;1.57;;;;;;;;;;4972289;28;21063;-82
2021/12/22 00:58:20;;;;;;;3.80;1.40;;;;;;;;;;4986667;28;20426;-81
2021/12/22 01:00:47;;;;;;;1.70;1.10;;;;;;;;;;4992522;28;20410;-81
2021/12/22 01:03:14;;;;;;;2.00;1.50;;;;;;;;;;4990968;28;20913;-80
2021/12/22 01:05:40;;;;;;;2.10;1.60;;;;;;;;;;4991690;28;20422;-80
2021/12/22 01:08:06;;;;;;;3.87;2.10;;;;;;;;;;4994044;28;20434;-80
2021/12/22 01:10:33;;;;;;;3.30;1.60;;;;;;;;;;4994031;28;20442;-81
2021/12/22 01:13:00;;;;;;;2.93;1.73;;;;;;;;;;4993113;28;20421;-81
2021/12/22 01:15:27;;;;;;;4.73;1.73;;;;;;;;;;4994718;28;20418;-80
2021/12/22 01:18:02;;;;;;;7.70;2.07;;;;;;;;;;4994588;28;20438;-82
2021/12/22 01:20:38;;;;;;;4.83;1.70;;;;;;;;;;4996098;28;20417;-81
2021/12/22 01:23:06;;;;;;;3.20;1.90;;;;;;;;;;4995218;28;20410;-81
2021/12/22 01:25:35;;;;;;;4.93;2.30;;;;;;;;;;4994802;28;20457;-82
2021/12/22 01:28:01;;;;;;;3.10;2.00;;;;;;;;;;4995114;28;20844;-81
2021/12/22 01:30:28;;;;;;;2.20;1.40;;;;;;;;;;4995076;28;20812;-82
2021/12/22 01:32:55;;;;;;;5.30;2.20;;;;;;;;;;4994807;28;20441;-81
2021/12/22 01:35:23;;;;;;;2.30;1.80;;;;;;;;;;4993373;28;20899;-81
2021/12/22 01:37:49;;;;;;;2.57;1.97;;;;;;;;;;4994899;28;20442;-81
2021/12/22 01:40:16;;;;;;;3.37;2.20;;;;;;;;;;4993036;28;20483;-81
2021/12/22 01:42:43;;;;;;;2.50;1.73;;;;;;;;;;4994219;28;20567;-82
2021/12/22 01:45:27;;;;;;;2.77;1.60;;;;;;;;;;4994748;28;20845;-81
2021/12/22 01:50:50;;;;;;;5.13;2.07;;;;;;;;;;4994552;28;20560;-82
2021/12/22 01:53:22;;;;;;;4.07;2.13;;;;;;;;;;4994974;28;20747;-81
2021/12/22 01:56:28;;;;;;;2.30;1.70;;;;;;;;;;4993139;28;20426;-81
2021/12/22 01:58:56;;;;;;;3.70;1.83;;;;;;;;;;4996340;28;20422;-81
2021/12/22 02:01:22;;;;;;;4.93;1.87;;;;;;;;;;4994099;28;20493;-81
2021/12/22 02:03:50;;;;;;;3.70;1.70;;;;;;;;;;4995464;28;20437;-81
2021/12/22 02:06:17;;;;;;;3.97;1.87;;;;;;;;;;4995183;28;20949;-81
2021/12/22 02:08:46;;;;;;;2.70;1.77;;;;;;;;;;4991964;28;20472;-80
2021/12/22 02:11:14;;;;;;;2.83;1.80;;;;;;;;;;4990947;28;20411;-80
2021/12/22 02:13:44;;;;;;;4.07;2.03;;;;;;;;;;4993965;28;20417;-80
2021/12/22 02:16:13;;;;;;;2.43;1.70;;;;;;;;;;4994287;28;20399;-80
2021/12/22 02:18:42;;;;;;;4.40;1.97;;;;;;;;;;4992326;28;20428;-81
2021/12/22 02:21:08;;;;;;;2.93;1.83;;;;;;;;;;4994060;28;20508;-80
2021/12/22 02:23:35;;;;;;;2.30;1.70;;;;;;;;;;4994610;28;20410;-80
2021/12/22 02:26:09;;;;;;;2.67;1.80;;;;;;;;;;4993342;28;20831;-81
2021/12/22 02:28:37;;;;;;;2.60;1.80;;;;;;;;;;4994728;28;20765;-80
2021/12/22 02:31:03;;;;;;;2.50;1.57;;;;;;;;;;4994362;28;20413;-80
2021/12/22 02:33:35;;;;;;;3.80;1.80;;;;;;;;;;4992791;28;20418;-80
2021/12/22 02:38:31;;;;;;;3.20;1.87;;;;;;;;;;4991265;28;20755;-80
2021/12/22 02:40:57;;;;;;;3.90;1.93;;;;;;;;;;4990486;28;20529;-80
2021/12/22 02:43:30;;;;;;;3.43;1.83;;;;;;;;;;4990978;28;20410;-80
2021/12/22 02:45:56;;;;;;;3.60;2.30;;;;;;;;;;4990817;28;20399;-80
2021/12/22 02:48:23;;;;;;;2.80;1.47;;;;;;;;;;4990732;28;20410;-80
2021/12/22 02:50:50;;;;;;;2.80;2.20;;;;;;;;;;4990091;28;20405;-81
2021/12/22 02:53:16;;;;;;;3.40;2.10;;;;;;;;;;4992097;28;20403;-80
2021/12/22 02:55:48;;;;;;;3.10;1.90;;;;;;;;;;4990833;28;20399;-80
2021/12/22 02:58:23;;;;;;;2.83;2.10;;;;;;;;;;4990253;28;20434;-80
2021/12/22 03:01:03;;;;;;;3.33;1.70;;;;;;;;;;4989015;28;20398;-80
2021/12/22 03:03:50;;;;;;;2.73;1.80;;;;;;;;;;4990146;28;20407;-80
2021/12/22 03:06:24;;;;;;;2.60;1.67;;;;;;;;;;4992869;28;20434;-82
2021/12/22 03:08:50;;;;;;;2.77;1.90;;;;;;;;;;4991855;28;20406;-82
2021/12/22 03:11:16;;;;;;;3.97;2.80;;;;;;;;;;4992389;28;20445;-81
2021/12/22 03:13:42;;;;;;;4.70;2.40;;;;;;;;;;4991360;28;20421;-81
2021/12/22 03:16:08;;;;;;;3.60;2.10;;;;;;;;;;4993330;28;20411;-81
2021/12/22 03:18:35;;;;;;;3.00;2.00;;;;;;;;;;4992276;28;20476;-81
2021/12/22 03:21:13;;;;;;;2.93;1.90;;;;;;;;;;4991376;28;20835;-81
2021/12/22 03:23:40;;;;;;;8.90;2.63;;;;;;;;;;4992593;28;21008;-82
2021/12/22 03:26:06;;;;;;;3.40;2.33;;;;;;;;;;4992337;28;20536;-82
2021/12/22 03:28:32;;;;;;;3.70;2.13;;;;;;;;;;4992107;28;20497;-81
2021/12/22 03:30:59;;;;;;;3.03;2.07;;;;;;;;;;4992465;28;20497;-82
2021/12/22 03:33:25;;;;;;;2.70;2.07;;;;;;;;;;4993454;28;20489;-81
2021/12/22 03:35:51;;;;;;;5.60;1.97;;;;;;;;;;4991835;28;20873;-81
2021/12/22 03:38:17;;;;;;;3.30;2.20;;;;;;;;;;4991523;28;20446;-81
2021/12/22 03:40:43;;;;;;;4.33;2.27;;;;;;;;;;4990163;28;20422;-81
2021/12/22 03:43:09;;;;;;;4.53;1.97;;;;;;;;;;4992438;28;20432;-81
2021/12/22 03:45:35;;;;;;;3.00;1.93;;;;;;;;;;4992198;28;20469;-80
2021/12/22 03:48:01;;;;;;;3.47;2.13;;;;;;;;;;4990850;28;20431;-81
2021/12/22 03:50:27;;;;;;;3.57;1.83;;;;;;;;;;4992064;28;20432;-81
2021/12/22 03:52:53;;;;;;;2.50;2.00;;;;;;;;;;4993107;28;20415;-81
2021/12/22 03:55:19;;;;;;;3.07;1.90;;;;;;;;;;4993949;28;20410;-81
2021/12/22 03:57:45;;;;;;;2.50;2.03;;;;;;;;;;4991662;28;20817;-80
2021/12/22 04:00:12;;;;;;;3.60;2.20;;;;;;;;;;4989569;28;20840;-80
2021/12/22 04:02:39;;;;;;;3.87;2.30;;;;;;;;;;4992803;28;20487;-81
2021/12/22 04:05:05;;;;;;;3.80;2.10;;;;;;;;;;4994087;28;20414;-81
2021/12/22 04:07:32;;;;;;;3.07;2.20;;;;;;;;;;4992516;28;20849;-81
2021/12/22 04:09:58;;;;;;;3.43;1.93;;;;;;;;;;4993016;28;20405;-81
2021/12/22 04:12:24;;;;;;;3.63;2.00;;;;;;;;;;4991046;28;20419;-81
2021/12/22 04:14:50;;;;;;;2.70;2.00;;;;;;;;;;4993503;28;20445;-81
2021/12/22 04:17:17;;;;;;;3.30;2.40;;;;;;;;;;4993308;28;21008;-81
2021/12/22 04:19:43;;;;;;;3.80;2.00;;;;;;;;;;4991521;28;20413;-81
2021/12/22 04:22:10;;;;;;;3.13;2.30;;;;;;;;;;4992744;28;20462;-81
2021/12/22 04:24:37;;;;;;;2.27;1.37;;;;;;;;;;4993477;28;20489;-81
2021/12/22 04:27:03;;;;;;;2.13;1.70;;;;;;;;;;4992650;28;20427;-81
2021/12/22 04:29:29;;;;;;;2.67;1.90;;;;;;;;;;4992159;28;20414;-81
2021/12/22 04:31:55;;;;;;;4.03;2.17;;;;;;;;;;4984172;28;20434;-81
2021/12/22 04:34:21;;;;;;;2.60;1.73;;;;;;;;;;4969440;28;20417;-81
2021/12/22 04:36:47;;;;;;;3.00;2.03;;;;;;;;;;4975767;28;20462;-81
2021/12/22 04:39:13;;;;;;;2.43;1.67;;;;;;;;;;4987502;28;20435;-81
2021/12/22 04:41:39;;;;;;;3.77;1.80;;;;;;;;;;4993151;28;20511;-81
2021/12/22 04:44:05;;;;;;;2.80;2.10;;;;;;;;;;4986978;28;20420;-81
2021/12/22 04:46:31;;;;;;;3.07;1.90;;;;;;;;;;4973795;28;20467;-81
2021/12/22 04:48:57;;;;;;;2.17;1.70;;;;;;;;;;4972358;28;20907;-81
2021/12/22 04:51:34;;;;;;;3.70;1.60;;;;;;;;;;4974585;28;20415;-80
2021/12/22 04:56:30;;;;;;;3.07;2.00;;;;;;;;;;4973455;28;20458;-81
2021/12/22 04:58:56;;;;;;;2.93;1.70;;;;;;;;;;4972858;28;20408;-80
2021/12/22 05:01:22;;;;;;;4.07;2.20;;;;;;;;;;4971963;28;20471;-80
2021/12/22 05:03:48;;;;;;;3.83;1.80;;;;;;;;;;4973749;28;20469;-81
2021/12/22 05:06:14;;;;;;;4.10;2.23;;;;;;;;;;4973869;28;20427;-81
2021/12/22 05:08:40;;;;;;;2.77;2.07;;;;;;;;;;4970554;28;20441;-81
2021/12/22 05:11:06;;;;;;;3.77;2.20;;;;;;;;;;4973044;28;20424;-83
2021/12/22 05:13:34;;;;;;;2.90;2.00;;;;;;;;;;4975511;28;20415;-81
2021/12/22 05:16:03;;;;;;;3.17;2.10;;;;;;;;;;4976949;28;20775;-81
2021/12/22 05:21:14;;;;;;;3.27;2.20;;;;;;;;;;4974408;28;20498;-81
2021/12/22 05:23:40;;;;;;;2.90;2.03;;;;;;;;;;4977858;28;20425;-80
2021/12/22 05:26:06;;;;;;;4.20;2.20;;;;;;;;;;4979671;28;20411;-81
2021/12/22 05:28:32;;;;;;;8.57;2.83;;;;;;;;;;4980714;28;20419;-82
2021/12/22 05:30:58;;;;;;;3.47;2.40;;;;;;;;;;4980247;28;20412;-82
2021/12/22 05:33:24;;;;;;;2.67;1.80;;;;;;;;;;4981112;28;20419;-82
2021/12/22 05:35:50;;;;;;;9.00;2.23;;;;;;;;;;4980365;28;20473;-82
2021/12/22 05:38:17;;;;;;;2.23;1.60;;;;;;;;;;4982035;28;20506;-82
2021/12/22 05:40:43;;;;;;;2.77;1.90;;;;;;;;;;4981413;28;20419;-82
2021/12/22 05:43:09;;;;;;;2.77;2.10;;;;;;;;;;4994501;28;20411;-82
2021/12/22 05:45:35;;;;;;;3.07;1.60;;;;;;;;;;4989484;28;20427;-82
2021/12/22 05:48:01;;;;;;;3.30;1.70;;;;;;;;;;4979294;28;20450;-82
2021/12/22 05:50:27;;;;;;;4.40;2.17;;;;;;;;;;4979268;28;20486;-83
2021/12/22 05:52:53;;;;;;;3.67;2.30;;;;;;;;;;4976968;28;20451;-82
2021/12/22 05:55:19;;;;;;;6.67;3.10;;;;;;;;;;4979658;28;20798;-82
2021/12/22 05:57:45;;;;;;;4.97;2.90;;;;;;;;;;4977907;28;20446;-82
2021/12/22 06:00:12;;;;;;;6.33;2.87;;;;;;;;;;4977304;28;20423;-82
2021/12/22 06:02:38;;;;;;;7.60;3.27;;;;;;;;;;4977679;28;20489;-81
2021/12/22 06:05:04;;;;;;;3.50;2.43;;;;;;;;;;4977044;28;20424;-83
2021/12/22 06:07:30;;;;;;;6.17;3.03;;;;;;;;;;4976804;28;20447;-83
2021/12/22 06:09:56;;;;;;;4.60;2.33;;;;;;;;;;4979561;28;20479;-82
2021/12/22 06:12:22;;;;;;;4.90;2.33;;;;;;;;;;4981198;28;20432;-82
2021/12/22 06:14:48;;;;;;;2.97;2.43;;;;;;;;;;4977888;28;20427;-82
2021/12/22 06:17:14;;;;;;;2.63;1.80;;;;;;;;;;4978152;28;20442;-82
2021/12/22 06:19:40;;;;;;;2.97;1.93;;;;;;;;;;4978969;28;20422;-82
2021/12/22 06:22:06;;;;;;;4.40;2.30;;;;;;;;;;4979043;28;20532;-82
2021/12/22 06:24:32;;;;;;;3.67;2.30;;;;;;;;;;4979696;28;20494;-82
2021/12/22 06:26:58;;;;;;;2.70;1.90;;;;;;;;;;4973306;28;20444;-82
2021/12/22 06:29:25;;;;;;;3.87;1.60;;;;;;;;;;4977586;28;20494;-82
2021/12/22 06:31:51;;;;;;;7.60;2.70;;;;;;;;;;4980441;28;20459;-82
2021/12/22 06:34:17;;;;;;;4.80;3.13;;;;;;;;;;4978041;28;20792;-82
2021/12/22 06:36:43;;;;;;;2.70;1.90;;;;;;;;;;4978689;28;20446;-82
2021/12/22 06:39:09;;;;;;;3.17;1.50;;;;;;;;;;4980145;28;20415;-82
2021/12/22 06:41:35;;;;;;;2.03;1.10;;;;;;;;;;4976183;28;20709;-83
2021/12/22 06:44:02;;;;;;;3.00;2.00;;;;;;;;;;4978134;28;20423;-83
2021/12/22 06:46:28;;;;;;;3.90;2.20;;;;;;;;;;4975234;28;20436;-82
2021/12/22 06:48:54;;;;;;;2.87;2.10;;;;;;;;;;4975080;28;20448;-82
2021/12/22 06:51:20;;;;;;;3.30;2.40;;;;;;;;;;4975625;28;20431;-82
2021/12/22 06:53:46;;;;;;;3.63;2.60;;;;;;;;;;4973807;28;20446;-82
2021/12/22 06:56:12;;;;;;;3.00;2.00;;;;;;;;;;4975359;28;20458;-82
2021/12/22 06:58:38;;;;;;;4.57;2.63;;;;;;;;;;4976282;28;20454;-82
2021/12/22 07:01:04;;;;;;;2.73;1.60;;;;;;;;;;4977071;28;21005;-82
2021/12/22 07:03:30;;;;;;;3.67;2.40;;;;;;;;;;4977130;28;20419;-82
2021/12/22 07:05:56;;;;;;;3.70;2.33;;;;;;;;;;4977577;28;20407;-82
2021/12/22 07:08:22;;;;;;;3.50;1.90;;;;;;;;;;4976794;28;20435;-81
2021/12/22 07:10:48;;;;;;;5.37;3.20;;;;;;;;;;4972956;28;20538;-82
2021/12/22 07:13:14;;;;;;;3.10;2.10;;;;;;;;;;4975629;28;20821;-82
2021/12/22 07:15:40;;;;;;;6.40;3.73;;;;;;;;;;4975103;28;20431;-82
2021/12/22 07:18:08;;;;;;;6.83;3.40;;;;;;;;;;4975629;28;20443;-82
2021/12/22 07:20:35;;;;;;;7.60;3.60;;;;;;;;;;4976801;28;20475;-81
2021/12/22 07:23:01;;;;;;;16.33;4.10;;;;;;;;;;4972593;28;20479;-81
2021/12/22 07:25:27;;;;;;;8.80;4.40;;;;;;;;;;4971872;28;21017;-81
2021/12/22 07:27:53;;;;;;;8.40;4.67;;;;;;;;;;4972370;28;20463;-81
2021/12/22 07:30:19;;;;;;;8.40;4.20;;;;;;;;;;4972273;28;20450;-81
2021/12/22 07:32:45;;;;;;;9.53;4.30;;;;;;;;;;4973652;28;20455;-80
2021/12/22 07:35:15;;;;;;;7.47;4.00;;;;;;;;;;4974567;28;20408;-80
2021/12/22 07:37:41;;;;;;;7.53;4.00;;;;;;;;;;4974690;28;20442;-82
2021/12/22 07:40:08;;;;;;;6.27;4.33;;;;;;;;;;4976501;28;20463;-81
2021/12/22 07:42:34;;;;;;;8.23;4.00;;;;;;;;;;4975119;28;21035;-81
2021/12/22 07:45:00;;;;;;;6.53;3.67;;;;;;;;;;4976844;28;20404;-81
2021/12/22 07:47:26;;;;;;;9.93;4.40;;;;;;;;;;4976649;28;20435;-81
2021/12/22 07:49:52;;;;;;;6.63;3.80;;;;;;;;;;4976296;28;20423;-81
2021/12/22 07:52:18;;;;;;;8.00;3.70;;;;;;;;;;4976256;28;20905;-81
2021/12/22 07:54:44;;;;;;;7.07;4.03;;;;;;;;;;4974570;28;20438;-81
2021/12/22 07:57:10;;;;;;;21.83;3.80;;;;;;;;;;4976787;28;20443;-81
2021/12/22 07:59:36;;;;;;;8.60;4.50;;;;;;;;;;4976801;28;20508;-82
2021/12/22 08:02:02;;;;;;;17.87;5.17;;;;;;;;;;4977728;28;21014;-81
2021/12/22 08:04:29;;;;;;;20.23;7.20;;;;;;;;;;4976640;28;20664;-81
2021/12/22 08:06:55;;;;;;;16.87;8.00;;;;;;;;;;4977396;28;20798;-81
2021/12/22 08:09:25;;;;;;;9.17;5.50;;;;;;;;;;4974368;28;20416;-81
2021/12/22 08:11:52;;;;;;;7.27;4.33;;;;;;;;;;4977695;28;20480;-80
2021/12/22 08:14:18;;;;;;;10.20;5.07;;;;;;;;;;4977787;28;20432;-80
2021/12/22 08:16:44;;;;;;;8.57;4.80;;;;;;;;;;4969938;28;20450;-81
2021/12/22 08:19:10;;;;;;;9.63;5.30;;;;;;;;;;4983835;28;20434;-82
2021/12/22 08:21:36;;;;;;;11.80;5.13;;;;;;;;;;4993313;28;20455;-81
2021/12/22 08:24:02;;;;;;;6.00;3.53;;;;;;;;;;4979445;28;20426;-81
2021/12/22 08:26:29;;;;;;;5.13;3.60;;;;;;;;;;4976599;28;20446;-81
2021/12/22 08:28:55;;;;;;;4.77;2.87;;;;;;;;;;4979266;28;20427;-82
2021/12/22 08:31:21;;;;;;;8.70;3.40;;;;;;;;;;4976891;28;20432;-81
2021/12/22 08:33:47;;;;;;;5.40;3.53;;;;;;;;;;4978068;28;20411;-81
2021/12/22 08:39:01;;;;;;;4.80;3.10;;;;;;;;;;4969362;28;20943;-81
2021/12/22 08:41:28;;;;;;;5.03;3.23;;;;;;;;;;4973256;28;20467;-81
2021/12/22 08:43:55;;;;;;;4.80;3.10;;;;;;;;;;4974739;28;20427;-81
2021/12/22 08:46:22;;;;;;;6.20;3.50;;;;;;;;;;4980936;28;20500;-81
2021/12/22 08:48:48;;;;;;;5.47;3.07;;;;;;;;;;4977103;28;20423;-81
2021/12/22 08:51:14;;;;;;;3.73;2.43;;;;;;;;;;4976461;28;20427;-81
2021/12/22 08:53:41;;;;;;;3.60;2.43;;;;;;;;;;4971567;28;20425;-81
2021/12/22 08:56:07;;;;;;;3.50;2.30;;;;;;;;;;4958881;28;20419;-81
2021/12/22 08:58:33;;;;;;;4.30;2.00;;;;;;;;;;4975102;28;20434;-81
2021/12/22 09:01:00;;;;;;;5.37;3.27;;;;;;;;;;4994135;28;20419;-81
2021/12/22 09:03:26;;;;;;;6.37;3.53;;;;;;;;;;4970855;28;20420;-81
2021/12/22 09:05:52;;;;;;;4.77;2.77;;;;;;;;;;4980704;28;20407;-81
2021/12/22 09:08:18;;;;;;;9.57;3.50;;;;;;;;;;5043011;28;20777;-81
2021/12/22 09:10:44;;;;;;;3.70;2.40;;;;;;;;;;4994793;28;20431;-81
2021/12/22 09:13:12;;;;;;;3.63;2.60;;;;;;;;;;4981042;28;20411;-81
2021/12/22 09:15:39;;;;;;;5.70;2.90;;;;;;;;;;4981294;28;20427;-81
2021/12/22 09:18:05;;;;;;;5.23;3.13;;;;;;;;;;4969118;28;20455;-81
2021/12/22 09:20:30;;;;;;;5.00;2.83;;;;;;;;;;4962831;28;20460;-81
2021/12/22 09:22:56;;;;;;;5.73;2.87;;;;;;;;;;4980885;28;20471;-81
2021/12/22 09:25:22;;;;;;;4.73;3.43;;;;;;;;;;4992095;28;20431;-81
2021/12/22 09:27:48;;;;;;;4.37;2.60;;;;;;;;;;4980959;28;20439;-81
2021/12/22 09:30:14;;;;;;;3.87;2.03;;;;;;;;;;4978401;28;20435;-81
2021/12/22 09:32:41;;;;;;;4.00;2.97;;;;;;;;;;4984536;28;20902;-82
2021/12/22 09:35:07;;;;;;;3.70;2.67;;;;;;;;;;4976317;28;20423;-81
2021/12/22 09:37:33;;;;;;;5.20;2.77;;;;;;;;;;5052144;28;20534;-80
2021/12/22 09:39:59;;;;;;;5.53;2.50;;;;;;;;;;5025774;28;20454;-81
2021/12/22 09:42:25;;;;;;;4.33;2.77;;;;;;;;;;4976105;28;20462;-80
2021/12/22 09:44:52;;;;;;;4.60;2.40;;;;;;;;;;4970790;28;21005;-81
2021/12/22 09:47:27;;;;;;;3.50;2.90;;;;;;;;;;4979621;28;20865;-80
2021/12/22 09:50:08;;;;;;;3.67;2.20;;;;;;;;;;4973894;28;20427;-81
2021/12/22 09:52:35;;;;;;;3.50;2.30;;;;;;;;;;4975366;28;20507;-81
2021/12/22 09:55:01;;;;;;;5.10;2.80;;;;;;;;;;4977967;28;20818;-81
2021/12/22 09:57:28;;;;;;;4.07;2.80;;;;;;;;;;4975883;28;20459;-81
2021/12/22 09:59:54;;;;;;;3.90;2.50;;;;;;;;;;4975736;28;20411;-80
2021/12/22 10:02:21;;;;;;;4.07;2.33;;;;;;;;;;4976633;28;20459;-81
2021/12/22 10:04:47;;;;;;;4.10;2.30;;;;;;;;;;4976537;28;20998;-81
2021/12/22 10:07:19;;;;;;;6.07;3.27;;;;;;;;;;4990951;28;20443;-81
2021/12/22 10:09:46;;;;;;;4.60;2.47;;;;;;;;;;4980295;28;20423;-81
2021/12/22 10:12:13;;;;;;;3.47;2.13;;;;;;;;;;4986980;28;20419;-81
2021/12/22 10:14:47;;;;;;;5.93;2.97;;;;;;;;;;4975413;28;20459;-80
2021/12/22 10:17:25;;;;;;;4.47;2.57;;;;;;;;;;4973904;28;20439;-80
2021/12/22 10:19:53;;;;;;;4.03;2.50;;;;;;;;;;4971304;28;20427;-89
2021/12/22 10:22:19;;;;;;;5.20;2.37;;;;;;;;;;4969777;28;20557;-81
2021/12/22 10:24:46;;;;;;;3.13;2.10;;;;;;;;;;4973582;28;20423;-81
2021/12/22 10:27:19;;;;;;;3.00;2.00;;;;;;;;;;4972825;28;20447;-80
2021/12/22 10:29:46;;;;;;;3.80;2.57;;;;;;;;;;4977905;28;20529;-81
2021/12/22 10:32:13;;;;;;;3.50;2.33;;;;;;;;;;4973033;28;20434;-80
2021/12/22 10:35:00;;;;;;;5.20;2.37;;;;;;;;;;4975449;28;20419;-81
2021/12/22 10:37:40;;;;;;;2.77;2.10;;;;;;;;;;4975700;28;20435;-80
2021/12/22 10:40:22;;;;;;;4.80;2.57;;;;;;;;;;4974936;28;20917;-81
2021/12/22 10:42:48;;;;;;;3.77;2.70;;;;;;;;;;4975224;28;20455;-81
2021/12/22 10:45:15;;;;;;;2.80;1.97;;;;;;;;;;4973166;28;20993;-80
2021/12/22 10:50:36;;;;;;;3.60;2.47;;;;;;;;;;4975297;28;20410;-80
2021/12/22 10:53:02;;;;;;;3.60;2.70;;;;;;;;;;4974510;28;20441;-80
2021/12/22 10:55:36;;;;;;;3.20;2.10;;;;;;;;;;4974337;28;20929;-80
2021/12/22 10:58:02;;;;;;;3.47;2.37;;;;;;;;;;4975276;28;21024;-80
2021/12/22 11:00:28;;;;;;;4.23;2.30;;;;;;;;;;4974629;28;20419;-80
2021/12/22 11:03:08;;;;;;;2.67;2.10;;;;;;;;;;4973895;28;20962;-80
2021/12/22 11:05:47;;;;;;;3.17;2.03;;;;;;;;;;4973642;28;20423;-79
2021/12/22 11:08:20;;;;;;;2.83;1.70;;;;;;;;;;4975337;28;20424;-81
2021/12/22 11:10:47;;;;;;;3.50;2.37;;;;;;;;;;4973995;28;21075;-80
2021/12/22 11:13:18;;;;;;;2.50;1.63;;;;;;;;;;4975097;28;20415;-80
2021/12/22 11:15:44;;;;;;;2.73;2.03;;;;;;;;;;4975191;28;20412;-80
2021/12/22 11:18:10;;;;;;;3.30;2.17;;;;;;;;;;4975046;28;20849;-80
2021/12/22 11:20:36;;;;;;;3.30;1.80;;;;;;;;;;4971429;28;20511;-81
2021/12/22 11:23:11;;;;;;;1.73;1.10;;;;;;;;;;4970027;28;20575;-81
2021/12/22 11:25:39;;;;;;;2.00;1.30;;;;;;;;;;4970520;28;20410;-81
2021/12/22 11:28:05;;;;;;;2.53;1.40;;;;;;;;;;4970666;28;20422;-81
2021/12/22 11:30:31;;;;;;;2.50;1.80;;;;;;;;;;4970323;28;20403;-81
2021/12/22 11:32:58;;;;;;;1.87;1.10;;;;;;;;;;4970379;28;20435;-81
2021/12/22 11:35:25;;;;;;;1.30;1.00;;;;;;;;;;4970723;28;20550;-81
2021/12/22 11:37:51;;;;;;;1.87;1.03;;;;;;;;;;4971008;28;20431;-81
2021/12/22 11:40:18;;;;;;;2.70;1.60;;;;;;;;;;4971105;28;20419;-81
2021/12/22 11:42:44;;;;;;;2.50;1.50;;;;;;;;;;4970100;28;20521;-81
2021/12/22 11:45:10;;;;;;;2.37;1.53;;;;;;;;;;4971564;28;20891;-81
2021/12/22 11:47:37;;;;;;;1.87;1.27;;;;;;;;;;4970242;28;20447;-81
2021/12/22 11:50:05;;;;;;;2.20;1.30;;;;;;;;;;4971508;28;20441;-81
2021/12/22 11:52:33;;;;;;;2.40;1.17;;;;;;;;;;4971955;28;20415;-82
2021/12/22 11:55:10;;;;;;;1.63;1.03;;;;;;;;;;4971889;28;20414;-80
2021/12/22 11:57:36;;;;;;;4.40;1.20;;;;;;;;;;4970282;28;20455;-86
2021/12/22 12:00:21;;;;;;;2.50;1.43;;;;;;;;;;4970200;28;20459;-85
2021/12/22 12:02:47;;;;;;;2.87;1.70;;;;;;;;;;4969366;28;20490;-84
2021/12/22 12:05:24;;;;;;;3.30;1.63;;;;;;;;;;4970009;28;20823;-81
2021/12/22 12:07:57;;;;;;;2.77;1.30;;;;;;;;;;4972712;28;20434;-81
2021/12/22 12:10:42;;;;;;;1.90;1.07;;;;;;;;;;4970913;28;20415;-81
2021/12/22 12:13:22;;;;;;;1.90;1.20;;;;;;;;;;4972699;28;20461;-81
2021/12/22 12:21:48;;;;;;;2.17;1.37;;;;;;;;;;4973166;28;20486;-81
2021/12/22 12:24:33;;;;;;;2.80;1.20;;;;;;;;;;4973158;28;20428;-81
2021/12/22 12:27:00;;;;;;;1.73;1.00;;;;;;;;;;4973767;28;20419;-81
2021/12/22 12:29:45;;;;;;;1.97;1.10;;;;;;;;;;4973108;28;20406;-81
2021/12/22 12:32:31;;;;;;;2.10;1.40;;;;;;;;;;4973008;28;20410;-81
2021/12/22 12:35:15;;;;;;;1.80;1.20;;;;;;;;;;4975488;28;20430;-81
2021/12/22 12:37:56;;;;;;;2.83;1.70;;;;;;;;;;4977148;28;20518;-81
2021/12/22 12:40:22;;;;;;;2.00;1.13;;;;;;;;;;4975723;28;20419;-82
2021/12/22 12:42:58;;;;;;;2.20;1.13;;;;;;;;;;4977290;28;20554;-82
2021/12/22 12:45:43;;;;;;;2.20;1.20;;;;;;;;;;4977105;28;20437;-82
2021/12/22 12:48:30;;;;;;;2.33;1.40;;;;;;;;;;4976471;28;20423;-81
2021/12/22 12:51:12;;;;;;;1.67;0.90;;;;;;;;;;4976528;28;20484;-80
2021/12/22 12:53:42;;;;;;;2.13;1.20;;;;;;;;;;4976504;28;20399;-80
2021/12/22 12:56:09;;;;;;;2.30;1.70;;;;;;;;;;4976988;28;20406;-80
2021/12/22 12:58:35;;;;;;;2.70;1.47;;;;;;;;;;4975879;28;20422;-80
2021/12/22 13:01:01;;;;;;;1.40;0.95;;;;;;;;;;4975256;28;20423;-80
2021/12/22 13:03:27;;;;;;;1.40;0.90;;;;;;;;;;4977375;28;20472;-81
2021/12/22 13:05:53;;;;;;;2.40;1.40;;;;;;;;;;4977700;28;20403;-80
2021/12/22 13:08:19;;;;;;;1.97;1.20;;;;;;;;;;4979943;28;20414;-80
2021/12/22 13:10:51;;;;;;;2.77;1.80;;;;;;;;;;4976742;28;20403;-80
2021/12/22 13:13:20;;;;;;;2.30;1.37;;;;;;;;;;4975888;28;20461;-81
2021/12/22 13:15:46;;;;;;;2.43;1.50;;;;;;;;;;4978425;28;20407;-80
2021/12/22 13:18:14;;;;;;;3.13;1.70;;;;;;;;;;4977319;28;20772;-81
2021/12/22 13:20:41;;;;;;;1.87;1.30;;;;;;;;;;4977443;28;20894;-81
2021/12/22 13:23:10;;;;;;;1.90;1.10;;;;;;;;;;4976638;28;20486;-81
2021/12/22 13:25:37;;;;;;;1.70;0.90;;;;;;;;;;4977962;28;20457;-81
2021/12/22 13:28:07;;;;;;;2.10;1.30;;;;;;;;;;4977038;28;20427;-82
2021/12/22 13:30:39;;;;;;;1.97;1.00;;;;;;;;;;4975911;28;20415;-80
2021/12/22 13:33:07;;;;;;;1.60;1.17;;;;;;;;;;4976945;28;20771;-80
2021/12/22 13:35:38;;;;;;;1.80;1.20;;;;;;;;;;4974677;28;20829;-80
2021/12/22 13:38:18;;;;;;;2.60;0.80;;;;;;;;;;4975317;28;20442;-81
2021/12/22 13:40:54;;;;;;;1.93;1.20;;;;;;;;;;4974568;28;20910;-81
2021/12/22 13:43:21;;;;;;;2.13;0.97;;;;;;;;;;4975730;28;20466;-81
2021/12/22 13:45:48;;;;;;;2.23;1.50;;;;;;;;;;4975975;28;20416;-81
2021/12/22 13:48:40;;;;;;;1.70;1.00;;;;;;;;;;4976520;28;20420;-81
2021/12/22 13:51:07;;;;;;;3.30;1.20;;;;;;;;;;4981984;28;20441;-82
2021/12/22 13:53:34;;;;;;;2.80;1.60;;;;;;;;;;4978277;28;20469;-81
2021/12/22 13:56:01;;;;;;;3.40;1.73;;;;;;;;;;4975662;28;20454;-82
2021/12/22 13:58:31;;;;;;;2.07;1.20;;;;;;;;;;4977835;28;20415;-82
2021/12/22 14:01:10;;;;;;;2.50;1.60;;;;;;;;;;4975098;28;20410;-82
2021/12/22 14:03:36;;;;;;;1.73;1.10;;;;;;;;;;4975949;28;20435;-81
2021/12/22 14:06:13;;;;;;;3.13;1.80;;;;;;;;;;4976063;28;20416;-82
2021/12/22 14:08:39;;;;;;;1.73;1.37;;;;;;;;;;4975105;28;20411;-81
2021/12/22 14:20:04;;;;;;;2.60;1.90;;;;;;;;;;5106180;27;20570;-66
2021/12/22 14:22:35;;;;;;;3.23;1.73;;;;;;;;;;5072350;28;20422;-66
2021/12/22 14:25:16;;;;;;;2.27;1.40;;;;;;;;;;5089124;28;20747;-68
2021/12/22 14:27:50;;;;;;;2.70;1.40;;;;;;;;;;5089358;28;20390;-68
2021/12/22 14:30:22;;;;;;;2.20;1.27;;;;;;;;;;5088997;28;20402;-68
2021/12/22 14:32:56;;;;;;;2.23;1.40;;;;;;;;;;5089176;28;20450;-68
2021/12/22 14:35:23;;;;;;;2.17;1.40;;;;;;;;;;5088968;28;20480;-68
2021/12/22 14:37:55;;;;;;;2.40;1.23;;;;;;;;;;5088399;28;20398;-68
2021/12/22 14:40:23;;;;;;;2.43;1.60;;;;;;;;;;5088541;28;20451;-68
2021/12/22 14:42:56;;;;;;;2.40;1.40;;;;;;;;;;5088605;28;20433;-68
2021/12/22 14:45:27;;;;;;;2.20;1.50;;;;;;;;;;5088824;28;20901;-68
2021/12/22 14:48:08;;;;;;;8.80;1.37;;;;;;;;;;5089159;28;20552;-68
2021/12/22 14:50:35;;;;;;;36.97;4.10;;;;;;;;;;5088148;28;20410;-69
2021/12/22 14:53:03;;;;;;;21.77;3.47;;;;;;;;;;5088511;28;20484;-68
2021/12/22 14:56:01;;;;;;;10.93;2.63;;;;;;;;;;5088786;28;20906;-67
2021/12/22 14:58:28;;;;;;;15.93;2.70;;;;;;;;;;5055706;28;20464;-68
2021/12/22 15:00:54;;;;;;;10.10;2.40;;;;;;;;;;5087860;28;20440;-68
2021/12/22 15:03:21;;;;;;;14.23;2.57;;;;;;;;;;5088477;28;20436;-68
2021/12/22 15:06:06;;;;;;;23.17;3.30;;;;;;;;;;5088588;28;20480;-67
2021/12/22 15:08:32;;;;;;;13.13;2.80;;;;;;;;;;5088601;28;20417;-68
2021/12/22 15:11:00;;;;;;;7.53;2.10;;;;;;;;;;5088203;28;20421;-68
2021/12/22 15:13:26;;;;;;;7.57;2.10;;;;;;;;;;5088327;28;20446;-68
2021/12/22 15:15:52;;;;;;;8.03;1.90;;;;;;;;;;5088435;28;20410;-68
2021/12/22 15:18:18;;;;;;;13.50;1.90;;;;;;;;;;5088320;28;20473;-68
2021/12/22 15:20:44;;;;;;;8.23;2.10;;;;;;;;;;5087947;28;20395;-68
2021/12/22 15:23:12;;;;;;;7.60;1.80;;;;;;;;;;5089324;28;20422;-68